(°C)
19°
19°
18°
17°
16°
16°
16°
(°C)
19°
18°
18°
17°
17°
16°
16°
O
O
O
O
O
OSO
SO
(km/h)
12-20
12-19
10-17
8-14
6-12
6-11
5-10
(mm)
0
0
0
0
0
0
0
(%)
0
0
0
0
0
0
0

Élévation du soleil

/ 42°
sun-icon
UV 9
05:48
19:41
Gibbeuse décroissante (185°)
20:47
06:07

METAR pour San Diego (KSAN)

Heure Conditions Température/
Point de rosée
Vent Visibilité Météo Nuages Pression Changement Brut
VFR 18.3°C / 12.8°C 280º 9kt >10km - Scattered Clouds 1500ft 1013 - KSAN 162251Z 28009KT 10SM SCT015 18/13 A2994 RMK AO2 SLP138 T01830128
VFR 18.3°C / 12.8°C 210º 6kt >10km - Few Clouds 1500ft 1014 - KSAN 162151Z 21006KT 10SM FEW015 18/13 A2995 RMK AO2 SLP143 T01830128
VFR 18.3°C / 12.8°C 210º 8kt >10km - Few Clouds 1500ft 1014 - KSAN 162051Z 21008KT 10SM FEW015 18/13 A2996 RMK AO2 SLP145 T01830128 58006
VFR 18.9°C / 12.8°C 210º 9kt >10km - Scattered Clouds 1500ft 1014 - KSAN 161951Z 21009KT 10SM SCT015 19/13 A2997 RMK AO2 SLP147 T01890128
VFR 17.8°C / 12.8°C 210º 8kt >10km - Clear 1015 - KSAN 161851Z 21008KT 10SM CLR 18/13 A2998 RMK AO2 SLP151 T01780128
VFR 17.2°C / 12.2°C 260º 6kt >10km - Scattered Clouds 1500ft 1015 - KSAN 161751Z 26006KT 10SM SCT015 17/12 A2998 RMK AO2 SLP152 T01720122 10172 20144 50000
VFR 17.2°C / 12.2°C 220º 4kt >10km - Scattered Clouds 1500ft - KSAN 161740Z 22004KT 10SM SCT015 17/12 A2998 RMK AO2 T01720122
MVFR 16.7°C / 12.2°C 210º 5kt >10km - Overcast 1500ft - KSAN 161721Z 21005KT 10SM OVC015 17/12 A2998 RMK AO2 T01670122
MVFR 16.1°C / 12.2°C variable 6kt >10km - Overcast 1400ft 1015 - KSAN 161651Z VRB06KT 10SM OVC014 16/12 A2999 RMK AO2 SLP153 T01610122
MVFR 15°C / 11.7°C 170º 9kt Gust 18kt >10km - Overcast 1100ft 1014 - KSAN 161351Z 17009G18KT 7SM OVC011 15/12 A2997 RMK AO2 SLP148 T01500117
MVFR 15°C / 11.7°C 200º 6kt >10km - Overcast 1300ft 1014 - KSAN 161251Z 20006KT 10SM OVC013 15/12 A2996 RMK AO2 SLP144 T01500117
MVFR 15°C / 11.7°C 190º 7kt >10km - Overcast 1300ft 1014 - KSAN 161151Z 19007KT 10SM OVC013 15/12 A2995 RMK AO2 SLP142 T01500117 10156 20144 56001
MVFR 15°C / 11.7°C 200º 5kt >10km - Overcast 1100ft 1014 - KSAN 161051Z 20005KT 9SM OVC011 15/12 A2995 RMK AO2 SLP142 T01500117
MVFR 15°C / 11.7°C 140º 5kt >10km - Overcast 1100ft 1014 - KSAN 160951Z 14005KT 10SM OVC011 15/12 A2995 RMK AO2 SLP141 T01500117
MVFR 15°C / 12.2°C 170º 4kt >10km - Overcast 1100ft 1014 - KSAN 160851Z 17004KT 10SM OVC011 15/12 A2996 RMK AO2 SLP143 T01500122 58008
MVFR 15°C / 12.2°C 150º 4kt >10km - Overcast 1100ft 1014 - KSAN 160751Z 15004KT 10SM OVC011 15/12 A2997 RMK AO2 SLP148 T01500122 402110150
MVFR 15°C / 12.2°C 180º 6kt >10km - Overcast 1000ft 1015 - KSAN 160651Z 18006KT 10SM OVC010 15/12 A2998 RMK AO2 SLP150 T01500122
MVFR 15.6°C / 12.2°C 160º 6kt >10km - Overcast 1100ft 1015 - KSAN 160551Z 16006KT 10SM OVC011 16/12 A2998 RMK AO2 SLP152 T01560122 10183 20150 51013
MVFR 15.6°C / 12.2°C 180º 8kt >10km - Overcast 1000ft 1014 - KSAN 160451Z 18008KT 10SM OVC010 16/12 A2997 RMK AO2 SLP149 T01560122
MVFR 15°C / 12.2°C 170º 5kt Gust 17kt >10km - Overcast 1000ft 1014 - KSAN 160351Z 17005G17KT 10SM OVC010 15/12 A2996 RMK AO2 SLP144 T01500122
MVFR 15.6°C / 12.8°C 200º variable 150º to 220º 7kt >10km - Broken Clouds 1000ft 1013 - KSAN 160251Z 20007KT 150V220 10SM BKN010 16/13 A2994 RMK AO2 SLP139 T01560128 50003
MVFR 16.1°C / 12.8°C 230º 7kt >10km - Broken Clouds 1000ft
Broken Clouds 25000ft
- KSAN 160159Z 23007KT 10SM BKN010 BKN250 16/13 A2995 RMK AO2 T01610128
VFR 17.2°C / 13.3°C 220º 7kt >10km - Few Clouds 700ft
Scattered Clouds 25000ft
1013 - KSAN 160051Z 22007KT 10SM FEW007 SCT250 17/13 A2994 RMK AO2 SLP137 T01720133
VFR 17.8°C / 13.3°C 220º 7kt >10km - Few Clouds 700ft
Scattered Clouds 25000ft
1013 - KSAN 152351Z 22007KT 10SM FEW007 SCT250 18/13 A2994 RMK AO2 SLP137 T01780133 10211 20178 56005

VFR

18.3°C / 12.8°C

[Plus]
Vent 280º 9kt
Visibilité >10km
Météo -
Nuages Scattered Clouds 1500ft
Pression 1013
Changement -
Brut KSAN 162251Z 28009KT 10SM SCT015 18/13 A2994 RMK AO2 SLP138 T01830128

VFR

18.3°C / 12.8°C

[Plus]
Vent 210º 6kt
Visibilité >10km
Météo -
Nuages Few Clouds 1500ft
Pression 1014
Changement -
Brut KSAN 162151Z 21006KT 10SM FEW015 18/13 A2995 RMK AO2 SLP143 T01830128

VFR

18.3°C / 12.8°C

[Plus]
Vent 210º 8kt
Visibilité >10km
Météo -
Nuages Few Clouds 1500ft
Pression 1014
Changement -
Brut KSAN 162051Z 21008KT 10SM FEW015 18/13 A2996 RMK AO2 SLP145 T01830128 58006

VFR

18.9°C / 12.8°C

[Plus]
Vent 210º 9kt
Visibilité >10km
Météo -
Nuages Scattered Clouds 1500ft
Pression 1014
Changement -
Brut KSAN 161951Z 21009KT 10SM SCT015 19/13 A2997 RMK AO2 SLP147 T01890128

VFR

17.8°C / 12.8°C

[Plus]
Vent 210º 8kt
Visibilité >10km
Météo -
Nuages Clear
Pression 1015
Changement -
Brut KSAN 161851Z 21008KT 10SM CLR 18/13 A2998 RMK AO2 SLP151 T01780128

VFR

17.2°C / 12.2°C

[Plus]
Vent 260º 6kt
Visibilité >10km
Météo -
Nuages Scattered Clouds 1500ft
Pression 1015
Changement -
Brut KSAN 161751Z 26006KT 10SM SCT015 17/12 A2998 RMK AO2 SLP152 T01720122 10172 20144 50000

VFR

17.2°C / 12.2°C

[Plus]
Vent 220º 4kt
Visibilité >10km
Météo -
Nuages Scattered Clouds 1500ft
Pression
Changement -
Brut KSAN 161740Z 22004KT 10SM SCT015 17/12 A2998 RMK AO2 T01720122

MVFR

16.7°C / 12.2°C

[Plus]
Vent 210º 5kt
Visibilité >10km
Météo -
Nuages Overcast 1500ft
Pression
Changement -
Brut KSAN 161721Z 21005KT 10SM OVC015 17/12 A2998 RMK AO2 T01670122

MVFR

16.1°C / 12.2°C

[Plus]
Vent variable 6kt
Visibilité >10km
Météo -
Nuages Overcast 1400ft
Pression 1015
Changement -
Brut KSAN 161651Z VRB06KT 10SM OVC014 16/12 A2999 RMK AO2 SLP153 T01610122

MVFR

15°C / 11.7°C

[Plus]
Vent 170º 9kt Gust 18kt
Visibilité >10km
Météo -
Nuages Overcast 1100ft
Pression 1014
Changement -
Brut KSAN 161351Z 17009G18KT 7SM OVC011 15/12 A2997 RMK AO2 SLP148 T01500117

MVFR

15°C / 11.7°C

[Plus]
Vent 200º 6kt
Visibilité >10km
Météo -
Nuages Overcast 1300ft
Pression 1014
Changement -
Brut KSAN 161251Z 20006KT 10SM OVC013 15/12 A2996 RMK AO2 SLP144 T01500117

MVFR

15°C / 11.7°C

[Plus]
Vent 190º 7kt
Visibilité >10km
Météo -
Nuages Overcast 1300ft
Pression 1014
Changement -
Brut KSAN 161151Z 19007KT 10SM OVC013 15/12 A2995 RMK AO2 SLP142 T01500117 10156 20144 56001

MVFR

15°C / 11.7°C

[Plus]
Vent 200º 5kt
Visibilité >10km
Météo -
Nuages Overcast 1100ft
Pression 1014
Changement -
Brut KSAN 161051Z 20005KT 9SM OVC011 15/12 A2995 RMK AO2 SLP142 T01500117

MVFR

15°C / 11.7°C

[Plus]
Vent 140º 5kt
Visibilité >10km
Météo -
Nuages Overcast 1100ft
Pression 1014
Changement -
Brut KSAN 160951Z 14005KT 10SM OVC011 15/12 A2995 RMK AO2 SLP141 T01500117

MVFR

15°C / 12.2°C

[Plus]
Vent 170º 4kt
Visibilité >10km
Météo -
Nuages Overcast 1100ft
Pression 1014
Changement -
Brut KSAN 160851Z 17004KT 10SM OVC011 15/12 A2996 RMK AO2 SLP143 T01500122 58008

MVFR

15°C / 12.2°C

[Plus]
Vent 150º 4kt
Visibilité >10km
Météo -
Nuages Overcast 1100ft
Pression 1014
Changement -
Brut KSAN 160751Z 15004KT 10SM OVC011 15/12 A2997 RMK AO2 SLP148 T01500122 402110150

MVFR

15°C / 12.2°C

[Plus]
Vent 180º 6kt
Visibilité >10km
Météo -
Nuages Overcast 1000ft
Pression 1015
Changement -
Brut KSAN 160651Z 18006KT 10SM OVC010 15/12 A2998 RMK AO2 SLP150 T01500122

MVFR

15.6°C / 12.2°C

[Plus]
Vent 160º 6kt
Visibilité >10km
Météo -
Nuages Overcast 1100ft
Pression 1015
Changement -
Brut KSAN 160551Z 16006KT 10SM OVC011 16/12 A2998 RMK AO2 SLP152 T01560122 10183 20150 51013

MVFR

15.6°C / 12.2°C

[Plus]
Vent 180º 8kt
Visibilité >10km
Météo -
Nuages Overcast 1000ft
Pression 1014
Changement -
Brut KSAN 160451Z 18008KT 10SM OVC010 16/12 A2997 RMK AO2 SLP149 T01560122

MVFR

15°C / 12.2°C

[Plus]
Vent 170º 5kt Gust 17kt
Visibilité >10km
Météo -
Nuages Overcast 1000ft
Pression 1014
Changement -
Brut KSAN 160351Z 17005G17KT 10SM OVC010 15/12 A2996 RMK AO2 SLP144 T01500122

MVFR

15.6°C / 12.8°C

[Plus]
Vent 200º variable 150º to 220º 7kt
Visibilité >10km
Météo -
Nuages Broken Clouds 1000ft
Pression 1013
Changement -
Brut KSAN 160251Z 20007KT 150V220 10SM BKN010 16/13 A2994 RMK AO2 SLP139 T01560128 50003

MVFR

16.1°C / 12.8°C

[Plus]
Vent 230º 7kt
Visibilité >10km
Météo -
Nuages Broken Clouds 1000ft
Broken Clouds 25000ft
Pression
Changement -
Brut KSAN 160159Z 23007KT 10SM BKN010 BKN250 16/13 A2995 RMK AO2 T01610128

VFR

17.2°C / 13.3°C

[Plus]
Vent 220º 7kt
Visibilité >10km
Météo -
Nuages Few Clouds 700ft
Scattered Clouds 25000ft
Pression 1013
Changement -
Brut KSAN 160051Z 22007KT 10SM FEW007 SCT250 17/13 A2994 RMK AO2 SLP137 T01720133

VFR

17.8°C / 13.3°C

[Plus]
Vent 220º 7kt
Visibilité >10km
Météo -
Nuages Few Clouds 700ft
Scattered Clouds 25000ft
Pression 1013
Changement -
Brut KSAN 152351Z 22007KT 10SM FEW007 SCT250 18/13 A2994 RMK AO2 SLP137 T01780133 10211 20178 56005

TAF pour San Diego (KSAN)

From till


From till Wind 220º 9kt. Visibility 10km or more. Scattered Clouds 1500ft.
From till Wind 210º 8kt. Visibility 10km or more. Broken Clouds 1700ft.
From till Wind 180º 9kt. Visibility 10km or more. Overcast 1800ft.
From till Wind 210º 8kt. Visibility 10km or more. Scattered Clouds 2000ft.

Brut: KSAN 162047Z 1621/1724 22009KT P6SM SCT015 FM170130 21008KT P6SM BKN017 FM170900 18009KT P6SM OVC018 FM171700 21008KT P6SM SCT020

Radar et prévision de précipitation à court terme pour San Diego

Bruine
Légère
Modéré
Fort
Très fort
Grêle

Le marqueur est placé sur San Diego. Cette animation montre le Radar des précipitations pour les dernières heures, ainsi qu'une 1h prévision. La bruine ou les légères chutes de neiges peuvent ne pas être détectées par le radar. L'intensité des précipitations est visible avec un code couleur allant du bleu clair au violet foncé et orange.

Les images satellites pour San Diego, États Unis

Le marqueur est placé sur San Diego. [Plus]

L'image satellite en temps réel combine la lumière visible pendant la journée et le rayonnement infrarouge pendant la nuit. La nuit, l'image n'est pas sombre car le rayonnement infrarouge permet de détecter les différences de température. Malheureusement, les nuages bas et le brouillard sont difficiles à distinguer des températures au sol et peuvent donc être presque invisibles pendant la nuit. Les images des satellites Météosat pour l'Europe sont mises à jour en temps réel toutes les 5 minutes. Les images GOES-16/GOES-17 (Amérique du Nord et du Sud) et Himawari (Asie) sont mises à jour toutes les 10 minutes.

Retour vers le haut